createdAt,value
2023-02-11T00:46:34.882Z,22.30
2023-02-11T00:49:03.318Z,22.00
2023-02-11T00:51:32.257Z,22.10
2023-02-11T00:54:00.695Z,22.00
2023-02-11T00:56:29.108Z,22.00
2023-02-11T00:58:57.932Z,22.00
2023-02-11T01:46:29.030Z,21.90
2023-02-11T01:49:03.906Z,22.00
2023-02-11T01:51:39.630Z,22.00
2023-02-11T01:54:28.817Z,22.00
2023-02-11T01:57:18.354Z,22.00
2023-02-11T01:59:51.389Z,22.00
2023-02-11T02:46:40.918Z,21.80
2023-02-11T02:49:15.425Z,21.90
2023-02-11T02:52:22.451Z,21.90
2023-02-11T02:55:15.824Z,21.90
2023-02-11T02:58:04.470Z,21.60
2023-02-11T03:45:58.748Z,21.80
2023-02-11T03:48:32.229Z,21.80
2023-02-11T03:51:04.796Z,21.80
2023-02-11T03:53:33.338Z,21.80
2023-02-11T03:56:07.735Z,21.80
2023-02-11T03:58:36.272Z,21.80
2023-02-11T04:48:05.414Z,21.70
2023-02-11T04:50:33.744Z,21.80
2023-02-11T04:53:02.145Z,21.70
2023-02-11T04:55:30.558Z,21.80
2023-02-11T04:57:59.083Z,21.70
2023-02-11T05:47:43.397Z,21.70
2023-02-11T05:50:11.845Z,21.70
2023-02-11T05:52:40.295Z,21.70
2023-02-11T05:55:09.443Z,21.70
2023-02-11T05:57:37.961Z,21.70
2023-02-11T06:00:08.384Z,21.70
2023-02-11T06:02:42.448Z,21.70
2023-02-11T06:05:11.451Z,21.70
2023-02-11T06:07:39.849Z,21.60
2023-02-11T06:10:10.292Z,21.70
2023-02-11T06:12:39.173Z,21.70
2023-02-11T06:15:08.716Z,21.70
2023-02-11T06:17:37.467Z,21.60
2023-02-11T06:20:10.496Z,21.60
2023-02-11T06:22:39.304Z,21.60
2023-02-11T06:25:08.378Z,21.30
2023-02-11T06:27:37.082Z,21.60
2023-02-11T06:30:06.870Z,21.70
2023-02-11T06:32:45.267Z,21.60
2023-02-11T06:35:15.681Z,21.60
2023-02-11T06:37:44.225Z,21.60
2023-02-11T06:40:13.353Z,21.70
2023-02-11T06:42:41.798Z,21.60
2023-02-11T06:45:14.055Z,21.60
2023-02-11T06:47:42.933Z,21.60
2023-02-11T06:50:15.659Z,21.60
2023-02-11T06:52:44.139Z,21.60
2023-02-11T06:55:12.749Z,21.60
2023-02-11T06:57:41.303Z,21.60
2023-02-11T07:00:11.805Z,21.60
2023-02-11T07:02:40.281Z,21.60
2023-02-11T07:05:09.926Z,21.50
2023-02-11T07:07:39.803Z,21.60
2023-02-11T07:10:09.346Z,21.60
2023-02-11T07:12:38.211Z,21.60
2023-02-11T07:15:07.849Z,21.70
2023-02-11T07:17:36.733Z,21.70
2023-02-11T07:20:06.068Z,21.60
2023-02-11T07:22:36.028Z,21.60
2023-02-11T07:25:07.076Z,21.60
2023-02-11T07:27:35.518Z,21.60
2023-02-11T07:30:06.993Z,21.60
2023-02-11T07:32:36.066Z,21.60
2023-02-11T07:35:05.662Z,21.60
2023-02-11T07:37:35.432Z,21.60
2023-02-11T07:40:06.060Z,21.70
2023-02-11T07:42:36.080Z,21.60
2023-02-11T07:45:05.253Z,21.60
2023-02-11T07:47:35.662Z,21.60
2023-02-11T07:50:04.402Z,21.70
2023-02-11T07:52:33.157Z,21.60
2023-02-11T07:55:04.688Z,21.60
2023-02-11T07:57:34.914Z,21.60
2023-02-11T08:00:03.623Z,21.60
2023-02-11T08:02:38.974Z,21.50
2023-02-11T08:05:08.424Z,21.60
2023-02-11T08:07:37.100Z,21.60
2023-02-11T08:10:06.565Z,21.60
2023-02-11T08:12:36.513Z,21.60
2023-02-11T08:15:05.551Z,21.60
2023-02-11T08:17:35.992Z,21.60
2023-02-11T08:20:05.381Z,21.60
2023-02-11T08:22:34.814Z,21.50
2023-02-11T08:25:03.641Z,21.50
2023-02-11T08:27:32.697Z,21.50
2023-02-11T08:30:02.701Z,21.50
2023-02-11T08:32:31.409Z,21.50
2023-02-11T08:35:00.284Z,21.50
2023-02-11T08:37:30.293Z,21.50
2023-02-11T08:40:00.059Z,21.50
2023-02-11T08:42:28.857Z,21.50
2023-02-11T08:44:57.422Z,21.50
2023-02-11T08:47:27.426Z,21.50
2023-02-11T08:49:56.023Z,21.60
2023-02-11T08:52:24.554Z,21.50
2023-02-11T08:54:53.302Z,21.50
2023-02-11T08:57:21.994Z,21.60
2023-02-11T08:59:50.869Z,21.10
2023-02-11T09:02:19.483Z,21.50
2023-02-11T09:04:49.632Z,21.40
2023-02-11T09:07:18.271Z,21.50
2023-02-11T09:09:47.088Z,21.50
2023-02-11T09:12:15.672Z,21.50
2023-02-11T09:14:44.174Z,21.60
2023-02-11T09:17:12.673Z,21.50
2023-02-11T09:19:41.751Z,21.50
2023-02-11T09:22:11.676Z,21.60
2023-02-11T09:24:40.430Z,21.50
2023-02-11T09:27:09.205Z,21.30
2023-02-11T09:29:37.963Z,20.80
2023-02-11T09:32:09.780Z,20.50
2023-02-11T09:34:38.817Z,20.20
2023-02-11T09:37:07.612Z,20.20
2023-02-11T09:39:37.609Z,20.20
2023-02-11T09:42:44.725Z,20.30
2023-02-11T09:45:19.765Z,20.50
2023-02-11T09:47:53.742Z,20.60
2023-02-11T09:50:28.999Z,20.70
2023-02-11T09:53:02.755Z,20.80
2023-02-11T09:55:39.428Z,20.90
2023-02-11T09:58:15.174Z,20.90
2023-02-11T10:00:50.010Z,20.90
2023-02-11T10:03:52.710Z,21.00
2023-02-11T10:06:41.726Z,21.00
2023-02-11T10:09:26.726Z,21.00
2023-02-11T10:12:12.697Z,21.10
2023-02-11T10:15:19.032Z,21.10
2023-02-11T10:18:07.748Z,21.20
2023-02-11T10:20:39.988Z,21.30
2023-02-11T10:23:16.592Z,21.50
2023-02-11T10:25:47.648Z,21.60
2023-02-11T10:28:19.958Z,21.90
2023-02-11T10:30:59.401Z,22.00
2023-02-11T10:33:32.559Z,22.10
2023-02-11T10:36:01.488Z,22.30
2023-02-11T10:38:30.102Z,22.60
2023-02-11T10:40:58.582Z,22.80
2023-02-11T10:43:32.184Z,23.00
2023-02-11T10:46:04.155Z,23.20
2023-02-11T10:48:43.902Z,23.40
2023-02-11T10:51:20.740Z,23.40
2023-02-11T10:53:51.718Z,23.40
2023-02-11T10:56:27.663Z,23.40
2023-02-11T10:59:02.163Z,23.30
2023-02-11T11:01:43.569Z,23.20
2023-02-11T11:04:44.215Z,23.10
2023-02-11T11:07:19.191Z,23.00
2023-02-11T11:09:53.249Z,22.90
2023-02-11T11:12:30.162Z,22.80
2023-02-11T11:15:02.766Z,22.80
2023-02-11T11:17:31.975Z,22.70
2023-02-11T11:20:25.244Z,22.70
2023-02-11T11:23:10.148Z,22.60
2023-02-11T11:25:42.731Z,22.50
2023-02-11T11:28:25.406Z,22.50
2023-02-11T11:30:58.788Z,22.40
2023-02-11T11:33:30.628Z,22.40
2023-02-11T11:36:05.285Z,22.40
2023-02-11T11:38:35.843Z,22.30
2023-02-11T11:41:24.956Z,22.30
2023-02-11T11:44:04.139Z,22.30
2023-02-11T11:46:37.877Z,22.40
2023-02-11T11:49:23.563Z,22.30
2023-02-11T11:52:03.848Z,22.30
2023-02-11T11:54:35.458Z,22.40
2023-02-11T11:57:13.619Z,22.30
2023-02-11T11:59:42.418Z,22.30
2023-02-11T12:02:48.109Z,22.30
2023-02-11T12:05:25.946Z,22.20
2023-02-11T12:08:08.986Z,22.20
2023-02-11T12:11:03.497Z,22.20
2023-02-11T12:13:47.264Z,22.10
2023-02-11T12:16:29.383Z,22.10
2023-02-11T12:20:02.088Z,22.20
2023-02-11T12:22:45.861Z,22.20
2023-02-11T12:25:30.955Z,22.20
2023-02-11T12:28:26.408Z,22.20
2023-02-11T12:31:12.021Z,22.20
2023-02-11T12:34:18.804Z,22.10
2023-02-11T12:37:02.970Z,22.10
2023-02-11T12:39:43.811Z,22.20
2023-02-11T12:43:06.251Z,22.20
2023-02-11T12:46:02.082Z,22.20
2023-02-11T12:49:03.769Z,22.20
2023-02-11T12:51:50.466Z,22.10
2023-02-11T12:54:26.724Z,22.10
2023-02-11T12:57:03.393Z,22.30
2023-02-11T12:59:55.554Z,22.10
2023-02-11T13:02:37.530Z,22.10
2023-02-11T13:05:18.208Z,22.10
2023-02-11T13:07:51.107Z,22.10
2023-02-11T13:10:30.078Z,22.10
2023-02-11T13:13:18.425Z,22.10
2023-02-11T13:15:52.840Z,22.00
2023-02-11T13:18:44.836Z,22.10
2023-02-11T13:21:55.716Z,22.10
2023-02-11T13:24:39.489Z,22.10
2023-02-11T13:27:23.638Z,22.10
2023-02-11T13:30:28.515Z,22.10
2023-02-11T13:33:21.311Z,22.30
2023-02-11T13:36:07.358Z,22.30
2023-02-11T13:38:36.854Z,22.20
2023-02-11T13:41:19.367Z,22.20
2023-02-11T13:44:04.653Z,22.20
2023-02-11T13:46:57.254Z,22.10
2023-02-11T13:49:36.883Z,22.10
2023-02-11T13:52:17.751Z,22.10
2023-02-11T13:54:51.625Z,22.10
2023-02-11T13:57:45.582Z,22.10
2023-02-11T14:00:51.742Z,22.00
2023-02-11T14:03:49.038Z,22.00
2023-02-11T14:06:40.397Z,22.00
2023-02-11T14:09:41.405Z,22.00
2023-02-11T14:12:36.736Z,22.00
2023-02-11T14:15:41.348Z,22.00
2023-02-11T14:18:39.247Z,21.90
2023-02-11T14:21:15.564Z,22.00
2023-02-11T14:23:44.797Z,21.80
2023-02-11T14:26:40.723Z,22.00
2023-02-11T14:29:17.575Z,22.00
2023-02-11T14:31:56.324Z,22.20
2023-02-11T14:34:51.010Z,22.30
2023-02-11T14:37:34.951Z,22.30
2023-02-11T14:40:17.871Z,22.30
2023-02-11T14:42:46.941Z,22.30
2023-02-11T14:45:22.972Z,22.20
2023-02-11T14:47:59.524Z,22.20
2023-02-11T14:50:33.606Z,22.20
2023-02-11T14:53:03.559Z,22.20
2023-02-11T14:55:35.049Z,22.00
2023-02-11T14:58:19.378Z,22.10
2023-02-11T15:00:56.976Z,22.00
2023-02-11T15:03:36.929Z,22.10
2023-02-11T15:06:13.392Z,22.10
2023-02-11T15:08:48.321Z,22.10
2023-02-11T15:11:21.811Z,22.10
2023-02-11T15:13:54.357Z,22.30
2023-02-11T15:16:27.199Z,22.10
2023-02-11T15:19:02.454Z,22.10
2023-02-11T15:21:34.134Z,22.00
2023-02-11T15:24:06.137Z,22.10
2023-02-11T15:26:35.353Z,22.10
2023-02-11T15:29:04.896Z,22.10
2023-02-11T15:31:35.161Z,22.20
2023-02-11T15:34:10.563Z,22.20
2023-02-11T15:36:39.547Z,22.20
2023-02-11T15:39:32.524Z,22.20
2023-02-11T15:42:20.800Z,22.20
2023-02-11T15:44:56.541Z,22.20
2023-02-11T15:47:25.455Z,22.20
2023-02-11T15:49:55.420Z,22.10
2023-02-11T15:52:27.639Z,22.10
2023-02-11T15:55:00.627Z,22.10
2023-02-11T15:57:30.114Z,22.10
2023-02-11T16:00:04.250Z,22.10
2023-02-11T16:02:45.134Z,22.10
2023-02-11T16:05:30.855Z,22.10
2023-02-11T16:08:00.685Z,22.10
2023-02-11T16:10:31.872Z,22.10
2023-02-11T16:13:21.067Z,22.10
2023-02-11T16:15:53.524Z,22.10
2023-02-11T16:18:38.349Z,22.30
2023-02-11T16:21:16.836Z,22.10
2023-02-11T16:23:53.624Z,22.10
2023-02-11T16:26:28.678Z,22.10
2023-02-11T16:29:06.845Z,22.10
2023-02-11T16:31:38.406Z,22.10
2023-02-11T16:34:17.794Z,22.10
2023-02-11T16:36:48.519Z,22.10
2023-02-11T16:39:18.233Z,22.10
2023-02-11T16:41:46.733Z,22.10
2023-02-11T16:44:15.163Z,22.10
2023-02-11T16:46:43.908Z,22.10
2023-02-11T16:49:17.233Z,22.00
2023-02-11T16:51:49.519Z,22.00
2023-02-11T16:54:19.768Z,22.00
2023-02-11T16:56:48.412Z,22.00
2023-02-11T16:59:17.006Z,22.00
2023-02-11T17:01:46.407Z,22.00
2023-02-11T17:04:21.526Z,22.00
2023-02-11T17:06:51.441Z,22.00
2023-02-11T17:09:22.750Z,22.00
2023-02-11T17:11:52.235Z,22.00
2023-02-11T17:14:21.751Z,22.00
2023-02-11T17:16:50.526Z,22.00
2023-02-11T17:19:22.214Z,22.00
2023-02-11T17:21:55.144Z,22.00
2023-02-11T17:24:24.159Z,22.00
2023-02-11T17:26:52.810Z,22.00
2023-02-11T17:29:23.490Z,22.00
2023-02-11T17:31:53.141Z,22.00
2023-02-11T17:34:23.970Z,22.00
2023-02-11T17:36:53.788Z,22.00
2023-02-11T17:39:22.234Z,21.90
2023-02-11T17:41:51.340Z,21.90
2023-02-11T17:44:19.728Z,22.40
2023-02-11T17:46:48.127Z,21.90
2023-02-11T17:49:16.754Z,21.90
2023-02-11T17:51:45.330Z,21.90
2023-02-11T17:54:18.694Z,21.90
2023-02-11T17:56:50.529Z,21.90
2023-02-11T17:59:19.150Z,21.90
2023-02-11T18:01:47.612Z,22.00
2023-02-11T18:04:18.975Z,22.00
2023-02-11T18:06:47.792Z,22.00
2023-02-11T18:09:17.709Z,22.00
2023-02-11T18:11:46.336Z,22.00
2023-02-11T18:14:14.762Z,22.20
2023-02-11T18:16:44.860Z,22.00
2023-02-11T18:19:14.190Z,22.10
2023-02-11T18:21:42.592Z,22.00
2023-02-11T18:24:12.048Z,22.00
2023-02-11T18:26:41.963Z,22.00
2023-02-11T18:29:10.821Z,22.00
2023-02-11T18:31:39.611Z,22.00
2023-02-11T18:34:10.801Z,22.00
2023-02-11T18:36:39.443Z,22.00
2023-02-11T18:39:08.174Z,22.00
2023-02-11T18:41:36.615Z,22.00
2023-02-11T18:44:06.533Z,22.00
2023-02-11T18:46:35.475Z,22.00
2023-02-11T18:49:04.093Z,22.00
2023-02-11T18:51:32.565Z,22.00
2023-02-11T18:54:01.669Z,22.00
2023-02-11T18:56:30.230Z,22.00
2023-02-11T18:59:01.390Z,22.00
2023-02-11T19:01:34.313Z,22.00
2023-02-11T19:04:05.822Z,22.00
2023-02-11T19:06:37.356Z,22.00
2023-02-11T19:09:09.825Z,22.00
2023-02-11T19:11:50.182Z,22.00
2023-02-11T19:14:22.639Z,22.00
2023-02-11T19:16:55.240Z,21.90
2023-02-11T19:19:25.743Z,21.90
2023-02-11T19:21:54.562Z,21.90
2023-02-11T19:24:24.557Z,21.90
2023-02-11T19:26:56.688Z,21.90
2023-02-11T19:29:25.471Z,21.90
2023-02-11T19:31:55.895Z,21.90
2023-02-11T19:34:24.604Z,21.90
2023-02-11T19:36:54.140Z,21.90
2023-02-11T19:39:24.648Z,22.00
2023-02-11T19:41:53.384Z,21.90
2023-02-11T19:44:22.595Z,21.90
2023-02-11T19:46:53.247Z,21.40
2023-02-11T19:49:25.822Z,21.90
2023-02-11T19:51:57.418Z,21.90
2023-02-11T19:54:27.422Z,21.90
2023-02-11T19:56:55.978Z,22.10
2023-02-11T19:59:24.595Z,22.00
2023-02-11T20:01:53.858Z,22.10
2023-02-11T20:04:25.114Z,22.10
2023-02-11T20:06:53.659Z,22.00
2023-02-11T20:09:22.812Z,22.10
2023-02-11T20:11:51.202Z,22.20
2023-02-11T20:14:19.793Z,22.10
2023-02-11T20:16:50.003Z,22.10
2023-02-11T20:19:21.475Z,21.70
2023-02-11T20:21:55.832Z,22.00
2023-02-11T20:24:25.427Z,22.00
2023-02-11T20:26:55.889Z,22.00
2023-02-11T20:29:25.403Z,22.00
2023-02-11T20:31:54.293Z,22.00
2023-02-11T20:34:22.984Z,22.00
2023-02-11T20:36:53.072Z,22.00
2023-02-11T20:39:22.824Z,22.00
2023-02-11T20:41:51.822Z,22.00
2023-02-11T20:44:21.728Z,22.00
2023-02-11T20:46:50.619Z,21.50
2023-02-11T20:49:22.447Z,22.10
2023-02-11T20:51:53.788Z,22.10
2023-02-11T20:54:23.780Z,22.10
2023-02-11T20:56:53.880Z,22.10
2023-02-11T20:59:22.881Z,22.10
2023-02-11T21:01:55.274Z,22.10
2023-02-11T21:04:27.736Z,22.10
2023-02-11T21:07:01.521Z,22.00
2023-02-11T21:09:32.477Z,22.00
2023-02-11T21:12:01.698Z,22.00
2023-02-11T21:14:30.661Z,22.00
2023-02-11T21:16:59.627Z,22.00
2023-02-11T21:19:28.451Z,22.00
2023-02-11T21:22:00.671Z,22.00
2023-02-11T21:24:30.844Z,22.00
2023-02-11T21:26:59.961Z,22.10
2023-02-11T21:29:28.502Z,22.00
2023-02-11T21:31:57.022Z,22.00
2023-02-11T21:34:25.562Z,22.00
2023-02-11T21:36:54.210Z,22.00
2023-02-11T21:39:24.173Z,22.00
2023-02-11T21:41:53.428Z,22.10
2023-02-11T21:44:22.178Z,22.10
2023-02-11T21:46:50.766Z,22.10
2023-02-11T21:49:20.162Z,22.20
2023-02-11T21:51:48.526Z,22.10
2023-02-11T21:54:18.695Z,22.00
2023-02-11T21:56:51.781Z,22.00
2023-02-11T21:59:20.205Z,22.10
2023-02-11T22:01:48.544Z,22.20
2023-02-11T22:04:17.203Z,22.20
2023-02-11T22:06:46.038Z,22.30
2023-02-11T22:09:14.894Z,22.20
2023-02-11T22:11:43.233Z,22.30
2023-02-11T22:14:13.017Z,22.30
2023-02-11T22:16:41.447Z,22.30
2023-02-11T22:19:10.882Z,22.30
2023-02-11T22:21:39.343Z,22.30
2023-02-11T22:24:08.443Z,22.30
2023-02-11T22:26:36.941Z,22.30
2023-02-11T22:29:05.593Z,22.40
2023-02-11T22:31:37.129Z,22.40
2023-02-11T22:34:07.021Z,22.40
2023-02-11T22:36:38.260Z,22.50
2023-02-11T22:39:09.736Z,22.50
2023-02-11T22:41:39.325Z,22.50
2023-02-11T22:44:08.265Z,22.50
2023-02-11T22:46:38.343Z,22.50
2023-02-11T22:49:07.769Z,22.50
2023-02-11T22:51:36.259Z,22.50
2023-02-11T22:54:08.389Z,22.40
2023-02-11T22:56:37.429Z,22.40
2023-02-11T22:59:08.560Z,22.30
2023-02-11T23:01:39.216Z,22.30
2023-02-11T23:04:12.271Z,22.30
2023-02-11T23:06:41.264Z,22.40
2023-02-11T23:09:12.475Z,22.20
2023-02-11T23:11:41.701Z,22.20
2023-02-11T23:14:12.299Z,22.30
2023-02-11T23:16:42.955Z,22.30
2023-02-11T23:19:12.572Z,22.30
2023-02-11T23:21:41.385Z,22.30
2023-02-11T23:24:13.844Z,22.30
2023-02-11T23:26:44.601Z,22.30
2023-02-11T23:29:13.719Z,22.30
2023-02-11T23:31:46.527Z,22.30
2023-02-11T23:34:20.691Z,22.30
2023-02-11T23:36:49.373Z,22.30
2023-02-11T23:39:18.491Z,22.30
2023-02-11T23:41:48.232Z,22.30
2023-02-11T23:44:17.104Z,22.30
2023-02-11T23:46:47.550Z,22.30
2023-02-11T23:49:16.709Z,22.20
2023-02-11T23:51:45.819Z,22.20
2023-02-11T23:54:16.038Z,22.20
2023-02-11T23:56:45.030Z,22.20
2023-02-11T23:59:13.969Z,22.20
